sensor_id;sensor_type;location;lat;lon;timestamp;P1;durP1;ratioP1;P2;durP2;ratioP2
66587;SDS011;53446;50.076;8.198;2022-09-09T00:04:27;6.35;;;2.00;;
66587;SDS011;53446;50.076;8.198;2022-09-09T00:06:33;8.00;;;2.45;;
66587;SDS011;53446;50.076;8.198;2022-09-09T00:09:00;6.05;;;1.73;;
66587;SDS011;53446;50.076;8.198;2022-09-09T00:11:29;5.78;;;1.70;;
66587;SDS011;53446;50.076;8.198;2022-09-09T00:13:37;6.10;;;1.50;;
66587;SDS011;53446;50.076;8.198;2022-09-09T00:15:52;6.38;;;1.80;;
66587;SDS011;53446;50.076;8.198;2022-09-09T00:18:07;6.25;;;1.70;;
66587;SDS011;53446;50.076;8.198;2022-09-09T00:20:12;5.47;;;1.77;;
66587;SDS011;53446;50.076;8.198;2022-09-09T00:22:33;8.88;;;1.90;;
66587;SDS011;53446;50.076;8.198;2022-09-09T00:26:45;6.05;;;1.88;;
66587;SDS011;53446;50.076;8.198;2022-09-09T00:28:51;6.63;;;1.65;;
66587;SDS011;53446;50.076;8.198;2022-09-09T00:30:55;6.50;;;1.88;;
66587;SDS011;53446;50.076;8.198;2022-09-09T00:33:01;5.53;;;1.83;;
66587;SDS011;53446;50.076;8.198;2022-09-09T00:37:22;4.88;;;1.73;;
66587;SDS011;53446;50.076;8.198;2022-09-09T00:44:02;8.05;;;2.20;;
66587;SDS011;53446;50.076;8.198;2022-09-09T00:50:59;8.30;;;1.90;;
66587;SDS011;53446;50.076;8.198;2022-09-09T00:55:20;4.15;;;1.50;;
66587;SDS011;53446;50.076;8.198;2022-09-09T01:01:45;6.70;;;2.13;;
66587;SDS011;53446;50.076;8.198;2022-09-09T01:03:51;6.13;;;1.60;;
66587;SDS011;53446;50.076;8.198;2022-09-09T01:08:43;6.07;;;1.50;;
66587;SDS011;53446;50.076;8.198;2022-09-09T01:10:49;5.22;;;1.50;;
66587;SDS011;53446;50.076;8.198;2022-09-09T01:12:51;6.57;;;1.90;;
66587;SDS011;53446;50.076;8.198;2022-09-09T01:14:53;4.00;;;1.50;;
66587;SDS011;53446;50.076;8.198;2022-09-09T01:17:07;4.70;;;1.40;;
66587;SDS011;53446;50.076;8.198;2022-09-09T01:19:10;6.95;;;1.80;;
66587;SDS011;53446;50.076;8.198;2022-09-09T01:28:16;6.13;;;1.77;;
66587;SDS011;53446;50.076;8.198;2022-09-09T01:30:21;5.45;;;1.50;;
66587;SDS011;53446;50.076;8.198;2022-09-09T01:34:51;7.55;;;1.55;;
66587;SDS011;53446;50.076;8.198;2022-09-09T01:37:05;7.10;;;1.73;;
66587;SDS011;53446;50.076;8.198;2022-09-09T01:39:07;4.68;;;1.50;;
66587;SDS011;53446;50.076;8.198;2022-09-09T01:41:07;5.50;;;1.60;;
66587;SDS011;53446;50.076;8.198;2022-09-09T01:43:07;5.70;;;1.50;;
66587;SDS011;53446;50.076;8.198;2022-09-09T01:45:08;5.73;;;1.50;;
66587;SDS011;53446;50.076;8.198;2022-09-09T01:47:09;5.15;;;1.40;;
66587;SDS011;53446;50.076;8.198;2022-09-09T01:49:09;5.67;;;1.60;;
66587;SDS011;53446;50.076;8.198;2022-09-09T01:51:10;8.50;;;1.90;;
66587;SDS011;53446;50.076;8.198;2022-09-09T01:53:10;6.72;;;1.60;;
66587;SDS011;53446;50.076;8.198;2022-09-09T01:55:11;10.00;;;1.67;;
66587;SDS011;53446;50.076;8.198;2022-09-09T01:57:33;4.82;;;1.50;;
66587;SDS011;53446;50.076;8.198;2022-09-09T02:02:11;5.57;;;1.40;;
66587;SDS011;53446;50.076;8.198;2022-09-09T02:04:26;4.60;;;1.30;;
66587;SDS011;53446;50.076;8.198;2022-09-09T02:06:34;6.13;;;1.50;;
66587;SDS011;53446;50.076;8.198;2022-09-09T02:08:45;7.07;;;1.63;;
66587;SDS011;53446;50.076;8.198;2022-09-09T02:10:58;7.03;;;1.83;;
66587;SDS011;53446;50.076;8.198;2022-09-09T02:13:04;8.43;;;1.80;;
66587;SDS011;53446;50.076;8.198;2022-09-09T02:15:07;6.15;;;1.50;;
66587;SDS011;53446;50.076;8.198;2022-09-09T02:17:14;5.65;;;1.70;;
66587;SDS011;53446;50.076;8.198;2022-09-09T02:21:23;5.90;;;1.75;;
66587;SDS011;53446;50.076;8.198;2022-09-09T02:23:24;4.67;;;1.50;;
66587;SDS011;53446;50.076;8.198;2022-09-09T02:25:26;5.72;;;1.48;;
66587;SDS011;53446;50.076;8.198;2022-09-09T02:27:28;5.40;;;1.40;;
66587;SDS011;53446;50.076;8.198;2022-09-09T02:29:30;6.43;;;1.90;;
66587;SDS011;53446;50.076;8.198;2022-09-09T02:31:33;5.68;;;1.75;;
66587;SDS011;53446;50.076;8.198;2022-09-09T02:33:40;5.50;;;1.88;;
66587;SDS011;53446;50.076;8.198;2022-09-09T02:35:42;6.00;;;1.70;;
66587;SDS011;53446;50.076;8.198;2022-09-09T02:37:44;6.67;;;1.73;;
66587;SDS011;53446;50.076;8.198;2022-09-09T02:39:48;6.57;;;1.80;;
66587;SDS011;53446;50.076;8.198;2022-09-09T02:41:48;6.97;;;1.60;;
66587;SDS011;53446;50.076;8.198;2022-09-09T02:43:49;3.80;;;1.30;;
66587;SDS011;53446;50.076;8.198;2022-09-09T02:48:26;4.65;;;1.45;;
66587;SDS011;53446;50.076;8.198;2022-09-09T02:50:33;7.13;;;1.55;;
66587;SDS011;53446;50.076;8.198;2022-09-09T02:54:39;9.57;;;1.50;;
66587;SDS011;53446;50.076;8.198;2022-09-09T02:56:40;6.07;;;1.30;;
66587;SDS011;53446;50.076;8.198;2022-09-09T02:58:42;8.80;;;2.13;;
66587;SDS011;53446;50.076;8.198;2022-09-09T03:00:43;5.97;;;1.70;;
66587;SDS011;53446;50.076;8.198;2022-09-09T03:02:45;7.28;;;1.70;;
66587;SDS011;53446;50.076;8.198;2022-09-09T03:04:45;4.83;;;1.40;;
66587;SDS011;53446;50.076;8.198;2022-09-09T03:06:50;4.55;;;1.38;;
66587;SDS011;53446;50.076;8.198;2022-09-09T03:08:51;7.47;;;1.60;;
66587;SDS011;53446;50.076;8.198;2022-09-09T03:10:53;4.10;;;1.40;;
66587;SDS011;53446;50.076;8.198;2022-09-09T03:12:54;4.03;;;1.10;;
66587;SDS011;53446;50.076;8.198;2022-09-09T03:14:55;5.60;;;1.00;;
66587;SDS011;53446;50.076;8.198;2022-09-09T03:16:55;7.63;;;2.00;;
66587;SDS011;53446;50.076;8.198;2022-09-09T03:18:57;6.15;;;1.48;;
66587;SDS011;53446;50.076;8.198;2022-09-09T03:20:58;4.57;;;1.60;;
66587;SDS011;53446;50.076;8.198;2022-09-09T03:22:59;5.78;;;1.38;;
66587;SDS011;53446;50.076;8.198;2022-09-09T03:25:00;6.37;;;1.77;;
66587;SDS011;53446;50.076;8.198;2022-09-09T03:27:02;5.38;;;1.58;;
66587;SDS011;53446;50.076;8.198;2022-09-09T03:29:03;6.35;;;1.85;;
66587;SDS011;53446;50.076;8.198;2022-09-09T03:31:06;4.83;;;1.47;;
66587;SDS011;53446;50.076;8.198;2022-09-09T03:33:10;6.40;;;1.60;;
66587;SDS011;53446;50.076;8.198;2022-09-09T03:35:10;6.27;;;1.50;;
66587;SDS011;53446;50.076;8.198;2022-09-09T03:37:11;5.50;;;1.63;;
66587;SDS011;53446;50.076;8.198;2022-09-09T03:39:11;7.70;;;1.77;;
66587;SDS011;53446;50.076;8.198;2022-09-09T03:41:11;5.80;;;1.80;;
66587;SDS011;53446;50.076;8.198;2022-09-09T03:43:12;6.20;;;1.50;;
66587;SDS011;53446;50.076;8.198;2022-09-09T03:45:12;6.23;;;2.10;;
66587;SDS011;53446;50.076;8.198;2022-09-09T03:47:13;4.38;;;1.50;;
66587;SDS011;53446;50.076;8.198;2022-09-09T03:49:13;4.83;;;1.70;;
66587;SDS011;53446;50.076;8.198;2022-09-09T03:51:13;5.07;;;1.60;;
66587;SDS011;53446;50.076;8.198;2022-09-09T03:53:16;5.22;;;1.90;;
66587;SDS011;53446;50.076;8.198;2022-09-09T03:55:19;4.70;;;1.60;;
66587;SDS011;53446;50.076;8.198;2022-09-09T03:57:20;6.75;;;1.90;;
66587;SDS011;53446;50.076;8.198;2022-09-09T03:59:20;6.43;;;1.80;;
66587;SDS011;53446;50.076;8.198;2022-09-09T04:01:21;8.00;;;1.90;;
66587;SDS011;53446;50.076;8.198;2022-09-09T04:03:21;5.97;;;1.93;;
66587;SDS011;53446;50.076;8.198;2022-09-09T04:05:24;6.38;;;1.65;;
66587;SDS011;53446;50.076;8.198;2022-09-09T04:07:24;5.85;;;1.83;;
66587;SDS011;53446;50.076;8.198;2022-09-09T04:09:25;7.40;;;2.10;;
66587;SDS011;53446;50.076;8.198;2022-09-09T04:11:25;7.23;;;2.43;;
66587;SDS011;53446;50.076;8.198;2022-09-09T04:13:25;8.37;;;3.00;;
66587;SDS011;53446;50.076;8.198;2022-09-09T04:15:26;6.75;;;2.28;;
66587;SDS011;53446;50.076;8.198;2022-09-09T04:17:27;5.93;;;1.90;;
66587;SDS011;53446;50.076;8.198;2022-09-09T04:19:28;7.55;;;2.08;;
66587;SDS011;53446;50.076;8.198;2022-09-09T04:21:28;6.63;;;2.03;;
66587;SDS011;53446;50.076;8.198;2022-09-09T04:23:28;8.27;;;2.30;;
66587;SDS011;53446;50.076;8.198;2022-09-09T04:25:29;5.55;;;1.80;;
66587;SDS011;53446;50.076;8.198;2022-09-09T04:27:29;6.17;;;1.83;;
66587;SDS011;53446;50.076;8.198;2022-09-09T04:29:30;5.87;;;1.93;;
66587;SDS011;53446;50.076;8.198;2022-09-09T04:31:30;10.60;;;1.90;;
66587;SDS011;53446;50.076;8.198;2022-09-09T04:33:30;6.70;;;1.60;;
66587;SDS011;53446;50.076;8.198;2022-09-09T04:35:31;6.00;;;1.80;;
66587;SDS011;53446;50.076;8.198;2022-09-09T04:37:32;5.67;;;2.00;;
66587;SDS011;53446;50.076;8.198;2022-09-09T04:39:32;4.57;;;1.53;;
66587;SDS011;53446;50.076;8.198;2022-09-09T04:41:32;7.77;;;2.10;;
66587;SDS011;53446;50.076;8.198;2022-09-09T04:43:33;7.90;;;2.13;;
66587;SDS011;53446;50.076;8.198;2022-09-09T04:45:34;7.13;;;2.60;;
66587;SDS011;53446;50.076;8.198;2022-09-09T04:47:34;5.93;;;1.77;;
66587;SDS011;53446;50.076;8.198;2022-09-09T04:49:35;6.47;;;2.17;;
66587;SDS011;53446;50.076;8.198;2022-09-09T04:51:36;7.65;;;2.45;;
66587;SDS011;53446;50.076;8.198;2022-09-09T04:53:36;6.97;;;2.50;;
66587;SDS011;53446;50.076;8.198;2022-09-09T04:55:37;6.47;;;2.55;;
66587;SDS011;53446;50.076;8.198;2022-09-09T04:57:38;8.47;;;2.40;;
66587;SDS011;53446;50.076;8.198;2022-09-09T04:59:39;7.18;;;2.25;;
66587;SDS011;53446;50.076;8.198;2022-09-09T05:01:39;6.18;;;2.28;;
66587;SDS011;53446;50.076;8.198;2022-09-09T05:03:40;8.13;;;2.50;;
66587;SDS011;53446;50.076;8.198;2022-09-09T05:05:41;6.60;;;2.00;;
66587;SDS011;53446;50.076;8.198;2022-09-09T05:07:41;6.90;;;2.10;;
66587;SDS011;53446;50.076;8.198;2022-09-09T05:09:41;7.00;;;3.13;;
66587;SDS011;53446;50.076;8.198;2022-09-09T05:11:42;10.02;;;3.15;;
66587;SDS011;53446;50.076;8.198;2022-09-09T05:13:44;9.63;;;2.40;;
66587;SDS011;53446;50.076;8.198;2022-09-09T05:15:51;7.43;;;1.77;;
66587;SDS011;53446;50.076;8.198;2022-09-09T05:17:52;7.57;;;2.38;;
66587;SDS011;53446;50.076;8.198;2022-09-09T05:19:57;9.30;;;2.60;;
66587;SDS011;53446;50.076;8.198;2022-09-09T05:21:57;7.77;;;2.97;;
66587;SDS011;53446;50.076;8.198;2022-09-09T05:23:57;5.70;;;2.63;;
66587;SDS011;53446;50.076;8.198;2022-09-09T05:25:58;7.57;;;3.40;;
66587;SDS011;53446;50.076;8.198;2022-09-09T05:27:58;8.85;;;2.92;;
66587;SDS011;53446;50.076;8.198;2022-09-09T05:29:59;7.20;;;2.13;;
66587;SDS011;53446;50.076;8.198;2022-09-09T05:31:59;8.23;;;2.20;;
66587;SDS011;53446;50.076;8.198;2022-09-09T05:34:00;6.53;;;1.88;;
66587;SDS011;53446;50.076;8.198;2022-09-09T05:36:01;6.10;;;1.80;;
66587;SDS011;53446;50.076;8.198;2022-09-09T05:38:04;5.55;;;1.70;;
66587;SDS011;53446;50.076;8.198;2022-09-09T05:40:04;7.88;;;1.60;;
66587;SDS011;53446;50.076;8.198;2022-09-09T05:42:05;4.80;;;1.60;;
66587;SDS011;53446;50.076;8.198;2022-09-09T05:44:05;7.37;;;1.67;;
66587;SDS011;53446;50.076;8.198;2022-09-09T05:46:07;7.72;;;2.05;;
66587;SDS011;53446;50.076;8.198;2022-09-09T05:48:09;8.93;;;1.63;;
66587;SDS011;53446;50.076;8.198;2022-09-09T05:50:09;6.43;;;1.80;;
66587;SDS011;53446;50.076;8.198;2022-09-09T05:52:10;6.73;;;2.07;;
66587;SDS011;53446;50.076;8.198;2022-09-09T05:54:10;8.17;;;1.80;;
66587;SDS011;53446;50.076;8.198;2022-09-09T05:56:15;5.77;;;1.80;;
66587;SDS011;53446;50.076;8.198;2022-09-09T05:58:17;8.27;;;2.08;;
66587;SDS011;53446;50.076;8.198;2022-09-09T06:00:18;5.90;;;1.60;;
66587;SDS011;53446;50.076;8.198;2022-09-09T06:02:18;5.23;;;1.63;;
66587;SDS011;53446;50.076;8.198;2022-09-09T06:04:18;6.60;;;1.43;;
66587;SDS011;53446;50.076;8.198;2022-09-09T06:06:23;4.53;;;1.40;;
66587;SDS011;53446;50.076;8.198;2022-09-09T06:08:26;7.30;;;2.13;;
66587;SDS011;53446;50.076;8.198;2022-09-09T06:10:26;4.45;;;1.55;;
66587;SDS011;53446;50.076;8.198;2022-09-09T06:12:28;8.63;;;1.70;;
66587;SDS011;53446;50.076;8.198;2022-09-09T06:14:28;5.53;;;1.50;;
66587;SDS011;53446;50.076;8.198;2022-09-09T06:16:29;3.90;;;1.40;;
66587;SDS011;53446;50.076;8.198;2022-09-09T06:18:30;7.60;;;1.90;;
66587;SDS011;53446;50.076;8.198;2022-09-09T06:20:30;9.73;;;2.13;;
66587;SDS011;53446;50.076;8.198;2022-09-09T06:22:31;6.80;;;1.80;;
66587;SDS011;53446;50.076;8.198;2022-09-09T06:24:32;4.00;;;1.40;;
66587;SDS011;53446;50.076;8.198;2022-09-09T06:26:33;6.10;;;1.63;;
66587;SDS011;53446;50.076;8.198;2022-09-09T06:28:35;6.00;;;1.85;;
66587;SDS011;53446;50.076;8.198;2022-09-09T06:30:36;7.95;;;1.70;;
66587;SDS011;53446;50.076;8.198;2022-09-09T06:32:36;6.60;;;1.77;;
66587;SDS011;53446;50.076;8.198;2022-09-09T06:34:37;5.88;;;1.40;;
66587;SDS011;53446;50.076;8.198;2022-09-09T06:36:38;5.63;;;1.90;;
66587;SDS011;53446;50.076;8.198;2022-09-09T06:38:38;8.13;;;1.73;;
66587;SDS011;53446;50.076;8.198;2022-09-09T06:40:39;6.20;;;2.05;;
66587;SDS011;53446;50.076;8.198;2022-09-09T06:42:39;5.80;;;1.80;;
66587;SDS011;53446;50.076;8.198;2022-09-09T06:44:39;7.73;;;1.97;;
66587;SDS011;53446;50.076;8.198;2022-09-09T06:46:40;6.57;;;1.90;;
66587;SDS011;53446;50.076;8.198;2022-09-09T06:48:40;7.13;;;1.77;;
66587;SDS011;53446;50.076;8.198;2022-09-09T06:50:47;7.05;;;2.22;;
66587;SDS011;53446;50.076;8.198;2022-09-09T06:52:49;8.23;;;1.80;;
66587;SDS011;53446;50.076;8.198;2022-09-09T06:54:49;6.73;;;2.00;;
66587;SDS011;53446;50.076;8.198;2022-09-09T06:56:49;7.73;;;2.20;;
66587;SDS011;53446;50.076;8.198;2022-09-09T06:58:50;8.07;;;1.90;;
66587;SDS011;53446;50.076;8.198;2022-09-09T07:00:51;6.65;;;1.80;;
66587;SDS011;53446;50.076;8.198;2022-09-09T07:02:52;4.82;;;1.70;;
66587;SDS011;53446;50.076;8.198;2022-09-09T07:04:53;7.87;;;1.63;;
66587;SDS011;53446;50.076;8.198;2022-09-09T07:06:53;8.03;;;1.80;;
66587;SDS011;53446;50.076;8.198;2022-09-09T07:08:57;5.87;;;1.63;;
66587;SDS011;53446;50.076;8.198;2022-09-09T07:11:04;6.40;;;1.70;;
66587;SDS011;53446;50.076;8.198;2022-09-09T07:13:05;6.25;;;2.00;;
66587;SDS011;53446;50.076;8.198;2022-09-09T07:15:07;6.22;;;1.60;;
66587;SDS011;53446;50.076;8.198;2022-09-09T07:17:08;7.50;;;1.87;;
66587;SDS011;53446;50.076;8.198;2022-09-09T07:19:08;6.60;;;1.97;;
66587;SDS011;53446;50.076;8.198;2022-09-09T07:21:10;6.28;;;1.70;;
66587;SDS011;53446;50.076;8.198;2022-09-09T07:23:11;6.50;;;1.70;;
66587;SDS011;53446;50.076;8.198;2022-09-09T07:25:12;8.27;;;1.77;;
66587;SDS011;53446;50.076;8.198;2022-09-09T07:27:12;6.43;;;1.80;;
66587;SDS011;53446;50.076;8.198;2022-09-09T07:29:13;6.10;;;2.30;;
66587;SDS011;53446;50.076;8.198;2022-09-09T07:31:17;6.93;;;1.92;;
66587;SDS011;53446;50.076;8.198;2022-09-09T07:33:20;6.80;;;2.00;;
66587;SDS011;53446;50.076;8.198;2022-09-09T07:35:20;6.93;;;1.80;;
66587;SDS011;53446;50.076;8.198;2022-09-09T07:37:20;8.87;;;2.10;;
66587;SDS011;53446;50.076;8.198;2022-09-09T07:39:21;6.33;;;1.90;;
66587;SDS011;53446;50.076;8.198;2022-09-09T07:41:27;6.68;;;1.90;;
66587;SDS011;53446;50.076;8.198;2022-09-09T07:43:40;6.77;;;2.03;;
66587;SDS011;53446;50.076;8.198;2022-09-09T07:45:41;4.85;;;2.00;;
66587;SDS011;53446;50.076;8.198;2022-09-09T07:47:41;6.30;;;1.88;;
66587;SDS011;53446;50.076;8.198;2022-09-09T07:49:45;7.80;;;1.85;;
66587;SDS011;53446;50.076;8.198;2022-09-09T07:51:46;7.18;;;2.38;;
66587;SDS011;53446;50.076;8.198;2022-09-09T07:53:48;7.53;;;2.20;;
66587;SDS011;53446;50.076;8.198;2022-09-09T07:55:51;7.25;;;2.20;;
66587;SDS011;53446;50.076;8.198;2022-09-09T07:57:55;7.18;;;2.22;;
66587;SDS011;53446;50.076;8.198;2022-09-09T07:59:56;7.43;;;2.10;;
66587;SDS011;53446;50.076;8.198;2022-09-09T08:01:57;6.30;;;2.20;;
66587;SDS011;53446;50.076;8.198;2022-09-09T08:06:00;8.48;;;2.28;;
66587;SDS011;53446;50.076;8.198;2022-09-09T08:08:01;7.57;;;2.30;;
66587;SDS011;53446;50.076;8.198;2022-09-09T08:10:03;8.00;;;2.60;;
66587;SDS011;53446;50.076;8.198;2022-09-09T08:12:04;5.97;;;2.30;;
66587;SDS011;53446;50.076;8.198;2022-09-09T08:14:09;7.45;;;2.10;;
66587;SDS011;53446;50.076;8.198;2022-09-09T08:16:15;7.00;;;2.30;;
66587;SDS011;53446;50.076;8.198;2022-09-09T08:18:17;8.18;;;2.28;;
66587;SDS011;53446;50.076;8.198;2022-09-09T08:20:17;9.60;;;2.57;;
66587;SDS011;53446;50.076;8.198;2022-09-09T08:22:18;10.02;;;2.40;;
66587;SDS011;53446;50.076;8.198;2022-09-09T08:24:19;8.63;;;2.17;;
66587;SDS011;53446;50.076;8.198;2022-09-09T08:26:23;6.40;;;1.92;;
66587;SDS011;53446;50.076;8.198;2022-09-09T08:28:24;6.70;;;2.22;;
66587;SDS011;53446;50.076;8.198;2022-09-09T08:30:25;9.57;;;2.50;;
66587;SDS011;53446;50.076;8.198;2022-09-09T08:32:26;10.13;;;2.40;;
66587;SDS011;53446;50.076;8.198;2022-09-09T08:34:26;7.97;;;2.23;;
66587;SDS011;53446;50.076;8.198;2022-09-09T08:36:28;9.05;;;2.78;;
66587;SDS011;53446;50.076;8.198;2022-09-09T08:38:29;6.70;;;2.58;;
66587;SDS011;53446;50.076;8.198;2022-09-09T08:40:30;8.77;;;3.00;;
66587;SDS011;53446;50.076;8.198;2022-09-09T08:42:47;7.38;;;2.88;;
66587;SDS011;53446;50.076;8.198;2022-09-09T08:50:05;10.13;;;2.55;;
66587;SDS011;53446;50.076;8.198;2022-09-09T08:52:24;11.80;;;2.60;;
66587;SDS011;53446;50.076;8.198;2022-09-09T08:54:28;10.10;;;2.90;;
66587;SDS011;53446;50.076;8.198;2022-09-09T08:56:32;9.40;;;2.85;;
66587;SDS011;53446;50.076;8.198;2022-09-09T08:58:34;9.47;;;2.70;;
66587;SDS011;53446;50.076;8.198;2022-09-09T09:00:47;7.88;;;2.58;;
66587;SDS011;53446;50.076;8.198;2022-09-09T09:04:02;10.05;;;2.80;;
66587;SDS011;53446;50.076;8.198;2022-09-09T09:05:41;7.72;;;2.80;;
66587;SDS011;53446;50.076;8.198;2022-09-09T09:10:30;11.00;;;2.20;;
66587;SDS011;53446;50.076;8.198;2022-09-09T09:12:35;8.18;;;2.60;;
66587;SDS011;53446;50.076;8.198;2022-09-09T09:14:38;8.90;;;2.38;;
66587;SDS011;53446;50.076;8.198;2022-09-09T09:18:49;7.00;;;1.90;;
66587;SDS011;53446;50.076;8.198;2022-09-09T09:20:54;4.03;;;1.65;;
66587;SDS011;53446;50.076;8.198;2022-09-09T09:22:59;7.72;;;1.98;;
66587;SDS011;53446;50.076;8.198;2022-09-09T09:25:16;7.13;;;2.13;;
66587;SDS011;53446;50.076;8.198;2022-09-09T09:27:21;9.40;;;2.03;;
66587;SDS011;53446;50.076;8.198;2022-09-09T09:29:28;7.72;;;1.95;;
66587;SDS011;53446;50.076;8.198;2022-09-09T09:31:28;5.80;;;2.00;;
66587;SDS011;53446;50.076;8.198;2022-09-09T09:33:32;8.00;;;2.17;;
66587;SDS011;53446;50.076;8.198;2022-09-09T09:35:35;6.60;;;1.83;;
66587;SDS011;53446;50.076;8.198;2022-09-09T09:37:35;6.50;;;1.97;;
66587;SDS011;53446;50.076;8.198;2022-09-09T09:39:36;6.90;;;2.00;;
66587;SDS011;53446;50.076;8.198;2022-09-09T09:41:42;6.60;;;1.80;;
66587;SDS011;53446;50.076;8.198;2022-09-09T09:43:52;7.63;;;1.98;;
66587;SDS011;53446;50.076;8.198;2022-09-09T09:45:53;8.73;;;2.00;;
66587;SDS011;53446;50.076;8.198;2022-09-09T09:47:58;5.97;;;2.15;;
66587;SDS011;53446;50.076;8.198;2022-09-09T09:49:59;6.32;;;2.22;;
66587;SDS011;53446;50.076;8.198;2022-09-09T09:52:01;7.53;;;2.05;;
66587;SDS011;53446;50.076;8.198;2022-09-09T09:56:25;10.25;;;2.20;;
66587;SDS011;53446;50.076;8.198;2022-09-09T09:58:27;9.77;;;2.25;;
66587;SDS011;53446;50.076;8.198;2022-09-09T10:00:31;8.90;;;2.35;;
66587;SDS011;53446;50.076;8.198;2022-09-09T10:02:37;7.70;;;1.92;;
66587;SDS011;53446;50.076;8.198;2022-09-09T10:04:38;7.82;;;2.40;;
66587;SDS011;53446;50.076;8.198;2022-09-09T10:06:38;6.50;;;1.90;;
66587;SDS011;53446;50.076;8.198;2022-09-09T10:08:45;5.55;;;1.67;;
66587;SDS011;53446;50.076;8.198;2022-09-09T10:13:01;6.78;;;1.80;;
66587;SDS011;53446;50.076;8.198;2022-09-09T10:15:14;6.18;;;2.00;;
66587;SDS011;53446;50.076;8.198;2022-09-09T10:17:38;8.07;;;2.45;;
66587;SDS011;53446;50.076;8.198;2022-09-09T10:19:55;6.25;;;2.10;;
66587;SDS011;53446;50.076;8.198;2022-09-09T10:22:28;7.88;;;2.03;;
66587;SDS011;53446;50.076;8.198;2022-09-09T10:32:15;6.15;;;1.80;;
66587;SDS011;53446;50.076;8.198;2022-09-09T10:34:41;7.50;;;2.00;;
66587;SDS011;53446;50.076;8.198;2022-09-09T10:36:46;6.47;;;1.80;;
66587;SDS011;53446;50.076;8.198;2022-09-09T10:38:59;8.45;;;2.50;;
66587;SDS011;53446;50.076;8.198;2022-09-09T10:41:11;6.32;;;1.60;;
66587;SDS011;53446;50.076;8.198;2022-09-09T10:47:50;5.22;;;1.63;;
66587;SDS011;53446;50.076;8.198;2022-09-09T10:50:13;6.00;;;1.70;;
66587;SDS011;53446;50.076;8.198;2022-09-09T10:52:37;5.30;;;1.63;;
66587;SDS011;53446;50.076;8.198;2022-09-09T10:55:42;8.70;;;1.80;;
66587;SDS011;53446;50.076;8.198;2022-09-09T10:57:24;6.05;;;1.63;;
66587;SDS011;53446;50.076;8.198;2022-09-09T10:59:29;6.13;;;1.60;;
66587;SDS011;53446;50.076;8.198;2022-09-09T11:01:36;5.13;;;1.50;;
66587;SDS011;53446;50.076;8.198;2022-09-09T11:03:40;8.10;;;1.80;;
66587;SDS011;53446;50.076;8.198;2022-09-09T11:05:42;5.18;;;1.52;;
66587;SDS011;53446;50.076;8.198;2022-09-09T11:10:05;5.07;;;1.30;;
66587;SDS011;53446;50.076;8.198;2022-09-09T11:12:17;5.95;;;1.50;;
66587;SDS011;53446;50.076;8.198;2022-09-09T11:18:49;8.10;;;2.05;;
66587;SDS011;53446;50.076;8.198;2022-09-09T11:20:51;5.53;;;1.40;;
66587;SDS011;53446;50.076;8.198;2022-09-09T11:22:58;7.45;;;1.50;;
66587;SDS011;53446;50.076;8.198;2022-09-09T11:25:17;6.53;;;1.40;;
66587;SDS011;53446;50.076;8.198;2022-09-09T11:27:21;4.85;;;1.20;;
66587;SDS011;53446;50.076;8.198;2022-09-09T11:29:47;6.20;;;1.50;;
66587;SDS011;53446;50.076;8.198;2022-09-09T11:31:57;8.20;;;1.40;;
66587;SDS011;53446;50.076;8.198;2022-09-09T11:36:43;6.43;;;1.30;;
66587;SDS011;53446;50.076;8.198;2022-09-09T11:41:17;5.55;;;1.30;;
66587;SDS011;53446;50.076;8.198;2022-09-09T11:43:24;6.75;;;1.50;;
66587;SDS011;53446;50.076;8.198;2022-09-09T11:45:50;9.02;;;1.30;;
66587;SDS011;53446;50.076;8.198;2022-09-09T11:47:56;5.17;;;1.10;;
66587;SDS011;53446;50.076;8.198;2022-09-09T11:52:22;4.97;;;1.30;;
66587;SDS011;53446;50.076;8.198;2022-09-09T11:54:44;3.80;;;1.02;;
66587;SDS011;53446;50.076;8.198;2022-09-09T11:56:47;6.50;;;1.20;;
66587;SDS011;53446;50.076;8.198;2022-09-09T11:58:54;4.40;;;1.17;;
66587;SDS011;53446;50.076;8.198;2022-09-09T12:00:58;6.28;;;1.30;;
66587;SDS011;53446;50.076;8.198;2022-09-09T12:02:58;5.95;;;1.48;;
66587;SDS011;53446;50.076;8.198;2022-09-09T12:05:01;5.30;;;1.40;;
66587;SDS011;53446;50.076;8.198;2022-09-09T12:09:22;5.15;;;1.30;;
66587;SDS011;53446;50.076;8.198;2022-09-09T12:11:26;11.00;;;1.40;;
66587;SDS011;53446;50.076;8.198;2022-09-09T12:13:27;5.57;;;1.52;;
66587;SDS011;53446;50.076;8.198;2022-09-09T12:15:28;4.80;;;1.40;;
66587;SDS011;53446;50.076;8.198;2022-09-09T12:17:29;6.18;;;1.23;;
66587;SDS011;53446;50.076;8.198;2022-09-09T12:19:31;5.47;;;1.15;;
66587;SDS011;53446;50.076;8.198;2022-09-09T12:21:40;5.27;;;1.17;;
66587;SDS011;53446;50.076;8.198;2022-09-09T12:23:50;6.57;;;1.33;;
66587;SDS011;53446;50.076;8.198;2022-09-09T12:25:57;7.35;;;1.35;;
66587;SDS011;53446;50.076;8.198;2022-09-09T12:28:03;6.53;;;1.45;;
66587;SDS011;53446;50.076;8.198;2022-09-09T12:30:08;9.32;;;1.42;;
66587;SDS011;53446;50.076;8.198;2022-09-09T12:32:11;6.13;;;1.60;;
66587;SDS011;53446;50.076;8.198;2022-09-09T12:34:15;6.60;;;1.60;;
66587;SDS011;53446;50.076;8.198;2022-09-09T12:36:21;7.72;;;1.70;;
66587;SDS011;53446;50.076;8.198;2022-09-09T12:38:31;6.28;;;1.83;;
66587;SDS011;53446;50.076;8.198;2022-09-09T12:40:35;7.72;;;1.80;;
66587;SDS011;53446;50.076;8.198;2022-09-09T12:42:39;5.35;;;1.30;;
66587;SDS011;53446;50.076;8.198;2022-09-09T12:44:40;4.15;;;1.40;;
66587;SDS011;53446;50.076;8.198;2022-09-09T12:46:50;3.80;;;1.30;;
66587;SDS011;53446;50.076;8.198;2022-09-09T12:48:51;6.07;;;1.30;;
66587;SDS011;53446;50.076;8.198;2022-09-09T12:50:53;4.15;;;1.30;;
66587;SDS011;53446;50.076;8.198;2022-09-09T12:52:59;5.38;;;1.60;;
66587;SDS011;53446;50.076;8.198;2022-09-09T12:55:04;5.25;;;1.60;;
66587;SDS011;53446;50.076;8.198;2022-09-09T12:57:10;3.97;;;1.20;;
66587;SDS011;53446;50.076;8.198;2022-09-09T12:59:21;4.70;;;1.42;;
66587;SDS011;53446;50.076;8.198;2022-09-09T13:01:25;4.38;;;1.30;;
66587;SDS011;53446;50.076;8.198;2022-09-09T13:03:33;4.53;;;1.65;;
66587;SDS011;53446;50.076;8.198;2022-09-09T13:05:42;5.00;;;1.35;;
66587;SDS011;53446;50.076;8.198;2022-09-09T13:07:43;6.63;;;1.50;;
66587;SDS011;53446;50.076;8.198;2022-09-09T13:09:44;5.63;;;1.70;;
66587;SDS011;53446;50.076;8.198;2022-09-09T13:11:47;4.90;;;1.60;;
66587;SDS011;53446;50.076;8.198;2022-09-09T13:13:50;4.63;;;1.50;;
66587;SDS011;53446;50.076;8.198;2022-09-09T13:15:53;5.53;;;1.70;;
66587;SDS011;53446;50.076;8.198;2022-09-09T13:17:56;6.97;;;1.77;;
66587;SDS011;53446;50.076;8.198;2022-09-09T13:19:58;4.88;;;1.50;;
66587;SDS011;53446;50.076;8.198;2022-09-09T13:21:58;5.70;;;1.60;;
66587;SDS011;53446;50.076;8.198;2022-09-09T13:23:58;5.03;;;1.67;;
66587;SDS011;53446;50.076;8.198;2022-09-09T13:26:22;4.60;;;1.70;;
66587;SDS011;53446;50.076;8.198;2022-09-09T13:28:25;4.60;;;1.40;;
66587;SDS011;53446;50.076;8.198;2022-09-09T13:30:28;5.20;;;1.40;;
66587;SDS011;53446;50.076;8.198;2022-09-09T13:32:40;5.70;;;1.60;;
66587;SDS011;53446;50.076;8.198;2022-09-09T13:34:49;4.73;;;1.30;;
66587;SDS011;53446;50.076;8.198;2022-09-09T13:37:00;5.72;;;1.70;;
66587;SDS011;53446;50.076;8.198;2022-09-09T13:39:03;6.32;;;1.42;;
66587;SDS011;53446;50.076;8.198;2022-09-09T13:41:04;5.00;;;1.20;;
66587;SDS011;53446;50.076;8.198;2022-09-09T13:43:11;4.97;;;1.27;;
66587;SDS011;53446;50.076;8.198;2022-09-09T13:45:16;5.68;;;1.20;;
66587;SDS011;53446;50.076;8.198;2022-09-09T13:47:21;9.05;;;1.30;;
66587;SDS011;53446;50.076;8.198;2022-09-09T13:49:27;6.35;;;1.10;;
66587;SDS011;53446;50.076;8.198;2022-09-09T13:51:31;7.85;;;1.33;;
66587;SDS011;53446;50.076;8.198;2022-09-09T13:53:32;5.55;;;1.30;;
66587;SDS011;53446;50.076;8.198;2022-09-09T13:55:36;5.00;;;1.13;;
66587;SDS011;53446;50.076;8.198;2022-09-09T13:57:36;5.90;;;1.08;;
66587;SDS011;53446;50.076;8.198;2022-09-09T13:59:36;6.30;;;1.20;;